Meadowcreek, Virginia
Current Conditions -  °F | °C
As of 3:15 AM on Thursday 18 Dec 2014 (Local Time) from KHLX Reporting Station
Clear Clear  
Wind Chill: 20°   Ceiling: Unl
Heat Index: 30°   Visibility: 10mi
Dew Point: 24°   Wind: 12mph
Humidity: 77%   Direction: 300°WNW
Pressure: 30.07"   Gusts: 18mph
Location:  36.6484°N, 80.9203°W
Report Text: KHLX 180815Z AUTO 30010G16KT 10SM CLR M01/M05 A3007 RMK AO2 T10121047
Loading
Personal Weather Stations






























Interactive Weather Map New forecast layout! Learn more

10-Day Weather Forecast

Advertisements
Track Severe Weather on mobile